• Join FlightAware (Why Join?)
  • Login
  • US Flag 
05:37AM EDT


 

Airport Tracker/Info


-or-


 

Live Flight TrackerFlight Track Log ✈ DAL2128 ✈ 23-Jun-2013 ✈ KMCO - KDTW

Flight Track Log - Related Links

Times and Time Zones

All times are in EDT time to prevent confusion due to time zone crossing. See the DAL2128 flight status page for this flight to view local times or setup timezone preferences in your user account.

Time Position Orientation Groundspeed Altitude Reporting Facility
EDT Latitude Longitude Course Direction KTS MPH feet Rate Location/Type
02:47PM 28.4000 -81.3000 352° North 162 186 1,100  Level Orlando TRACON
02:49PM 28.3333 -81.2500 147° Southeast 234 269 4,900 2,760 Climbing Orlando TRACON
02:49PM 28.3667 -81.2000 53° Northeast 282 325 7,500 2,340 Climbing Orlando TRACON
02:51PM 28.9980 -81.3667 North  Level FlightAware Approximate
02:51PM 28.5189 -81.2317 350° North 301 346 11,500  Level Jacksonville Center
02:52PM 29.1143 -81.3833 North  Level FlightAware Approximate
02:52PM 28.6217 -81.2656 344° North 340 391 14,700  Level Jacksonville Center
02:53PM 29.2316 -81.3886 352° North  Level FlightAware Approximate
02:53PM 28.7181 -81.3042 341° North 363 418 17,400  Level Jacksonville Center
02:54PM 28.8231 -81.3450 341° North 376 433 19,500 1,920 Climbing Jacksonville Center
02:55PM 28.9319 -81.3886 341° North 398 458 21,300 1,680 Climbing Jacksonville Center
02:56PM 29.0472 -81.4319 342° North 427 491 22,900 840 Climbing Jacksonville Center
02:57PM 29.1481 -81.4683 343° North 427 491 23,000 840 Climbing Jacksonville Center
02:58PM 29.2694 -81.5189 340° North 433 498 24,600 1,560 Climbing Jacksonville Center
02:59PM 29.3933 -81.5697 340° North 453 521 26,200 1,800 Climbing Jacksonville Center
03:00PM 29.5147 -81.6158 342° North 458 527 28,300 1,980 Climbing Jacksonville Center
03:01PM 29.6383 -81.6644 341° North 463 533 30,200 1,800 Climbing Jacksonville Center
03:02PM 29.7619 -81.7058 344° North 463 533 31,900 1,800 Climbing Jacksonville Center
03:03PM 29.8856 -81.7403 346° North 458 527 33,900 1,500 Climbing Jacksonville Center
03:04PM 30.0089 -81.7653 350° North 453 521 35,000 1,140 Climbing Jacksonville Center
03:05PM 30.1364 -81.7806 354° North 453 521 36,300 960 Climbing Jacksonville Center
03:06PM 30.2661 -81.7983 353° North 453 521 37,000 300 Climbing Jacksonville Center
03:07PM 30.3914 -81.8186 352° North 453 521 37,000 -60 Level Jacksonville Center
03:08PM 30.5189 -81.8364 353° North 453 521 36,900  Descending Jacksonville Center
03:09PM 30.6592 -81.8639 350° North 464 534 37,000  Climbing Jacksonville Center
03:10PM 30.7806 -81.9036 344° North 459 528 37,000  Level Jacksonville Center
03:11PM 30.9019 -81.9458 343° North 452 520 37,000 360 Level Jacksonville Center
03:12PM 31.0233 -81.9883 343° North 452 520 37,800 480 Climbing Jacksonville Center
03:13PM 31.1467 -82.0042 354° North 436 502 38,000 60 Climbing Jacksonville Center
03:14PM 31.2719 -82.0128 357° North 445 512 38,000 300 Level Jacksonville Center
03:15PM 31.3972 -82.0211 357° North 445 512 38,700 480 Climbing Jacksonville Center
03:16PM 31.5225 -82.0297 357° North 443 510 39,000 120 Climbing Jacksonville Center
03:17PM 31.6458 -82.0336 358° North 448 516 39,000  Level Jacksonville Center
03:19PM 31.8683 -82.0458 357° North 453 521 39,000  Level Atlanta Center
03:20PM 31.9978 -82.0575 356° North 463 533 39,000  Level Atlanta Center
03:21PM 32.1272 -82.0622 358° North 463 533 39,000  Level Atlanta Center
03:22PM 32.2528 -82.0692 357° North 456 525 39,000  Level Atlanta Center
03:23PM 32.3842 -82.0786 357° North 461 531 39,000  Level Atlanta Center
03:24PM 32.5117 -82.0856 357° North 461 531 39,000  Level Atlanta Center
03:25PM 32.6431 -82.0778 North 461 531 39,000  Level Atlanta Center
03:26PM 32.7744 -82.0722 North 461 531 39,000  Level Atlanta Center
03:27PM 32.9058 -82.0619 North 461 531 39,000  Level Atlanta Center
03:28PM 33.0372 -82.0564 North 461 531 39,000  Level Atlanta Center
03:29PM 33.1667 -82.0486 North 461 531 39,000  Level Atlanta Center
03:30PM 33.2875 -82.0408 North 466 536 39,000  Level Atlanta Center
03:31PM 33.4189 -82.0303 North 466 536 39,000  Level Atlanta Center
03:32PM 33.5500 -82.0197 North 466 536 39,000  Level Atlanta Center
03:33PM 33.6817 -82.0142 North 471 542 39,000  Level Atlanta Center
03:34PM 33.8128 -82.0061 North 471 542 39,000  Level Atlanta Center
03:35PM 33.9442 -81.9956 North 471 542 39,000  Level Atlanta Center
03:36PM 34.0736 -81.9900 North 466 536 39,000  Level Atlanta Center
03:37PM 34.2028 -81.9842 North 466 536 39,000  Level Atlanta Center
03:38PM 34.3300 -81.9736 North 461 531 39,100 300 Climbing Atlanta Center
03:39PM 34.4717 -81.9650 North 456 525 39,700 420 Climbing Atlanta Center
03:40PM 34.5989 -81.9544 North 456 525 40,000 120 Climbing Atlanta Center
03:41PM 34.7344 -81.9461 North 462 532 40,000  Level Atlanta Center
03:42PM 34.8636 -81.9378 North 467 537 40,000  Level Atlanta Center
03:43PM 34.9992 -81.9342 North 472 543 40,000  Level Atlanta Center
03:44PM 35.1328 -81.9333 360° North 477 549 40,000  Level Atlanta Center
03:45PM 35.2642 -81.9350 359° North 477 549 40,000  Level Atlanta Center
03:46PM 35.3958 -81.9419 358° North 477 549 40,000  Level Atlanta Center
03:47PM 35.5314 -81.9461 359° North 477 549 40,000  Level Atlanta Center
03:48PM 35.6631 -81.9506 358° North 477 549 40,000  Level Atlanta Center
03:49PM 35.7964 -81.9497 360° North 477 549 40,000  Level Atlanta Center
03:50PM 35.9156 -81.9542 358° North 477 549 40,000  Level Atlanta Center
03:51PM 36.0469 -81.9561 359° North 477 549 40,000  Level Atlanta Center
03:53PM 36.2706 -81.9594 359° North 478 550 40,000  Level Indianapolis Center
03:54PM 36.4269 -81.9631 359° North 479 551 40,000  Level Indianapolis Center
03:55PM 36.5611 -81.9667 359° North 482 555 40,000  Level Indianapolis Center
03:56PM 36.6961 -81.9706 359° North 485 558 40,000  Level Indianapolis Center
03:57PM 36.8317 -81.9725 359° North 485 558 40,000  Level Indianapolis Center
03:58PM 36.9647 -81.9769 358° North 481 554 40,000  Level Indianapolis Center
03:59PM 37.1203 -81.9811 359° North 480 552 40,000  Level Indianapolis Center
04:00PM 37.2536 -81.9858 358° North 479 551 40,000  Level Indianapolis Center
04:01PM 37.3861 -81.9892 359° North 477 549 40,000  Level Indianapolis Center
04:02PM 37.5197 -81.9931 359° North 480 552 40,000  Level Indianapolis Center
04:03PM 37.6517 -81.9956 359° North 476 548 40,000  Level Indianapolis Center
04:04PM 37.7869 -81.9997 359° North 484 557 40,000  Level Indianapolis Center
04:05PM 37.9411 -82.0031 359° North 481 554 40,000  Level Indianapolis Center
04:06PM 38.0767 -82.0067 359° North 486 559 40,000  Level Indianapolis Center
04:07PM 38.2111 -82.0103 359° North 481 554 40,000  Level Indianapolis Center
04:08PM 38.3475 -82.0144 359° North 485 558 40,000  Level Indianapolis Center
04:09PM 38.4831 -82.0200 358° North 484 557 40,000  Level Indianapolis Center
04:10PM 38.6194 -82.0231 359° North 485 558 40,000  Level Indianapolis Center
04:11PM 38.7556 -82.0278 358° North 485 558 40,000  Level Indianapolis Center
04:12PM 38.8908 -82.0475 354° North 484 557 40,000  Level Indianapolis Center
04:13PM 39.0525 -82.0753 352° North 486 559 40,000  Level Indianapolis Center
04:14PM 39.1875 -82.0958 353° North 486 559 40,000 -420 Level Indianapolis Center
04:15PM 39.3233 -82.1164 353° North 489 563 39,200 -1,200 Descending Indianapolis Center
04:16PM 39.4611 -82.1381 353° North 487 560 37,600 -1,560 Descending Indianapolis Center
04:17PM 39.5969 -82.1592 353° North 488 562 36,000 -1,320 Descending Indianapolis Center
04:19PM 39.7333 -82.1803 353° North 490 564 34,900 -540 Descending Indianapolis Center
04:20PM 39.8714 -82.2036 353° North 497 572 35,000  Climbing Indianapolis Center
04:21PM 40.0103 -82.2258 353° North 500 575 35,000 -420 Level Indianapolis Center
04:22PM 40.1497 -82.2489 353° North 503 579 34,200 -1,260 Descending Indianapolis Center
04:23PM 40.3039 -82.2733 353° North 495 570 32,400 -1,980 Descending Indianapolis Center
04:24PM 40.4425 -82.2972 353° North 494 568 30,200 -1,200 Descending Indianapolis Center
04:25PM 40.5756 -82.3278 350° North 481 554 30,000 -120 Descending Indianapolis Center
04:26PM 40.7086 -82.3675 347° North 481 554 30,000 -1,080 Level Indianapolis Center
04:27PM 40.8428 -82.4075 347° North 487 560 27,900 -2,040 Descending Indianapolis Center
04:28PM 40.9722 -82.4450 348° North 472 543 25,900 -2,040 Descending Indianapolis Center
04:29PM 41.0936 -82.4814 347° North 461 531 24,000 -1,560 Descending Cleveland Center
04:30PM 41.2097 -82.5181 347° North 431 496 23,000 -1,740 Descending Cleveland Center
04:31PM 41.3025 -82.5844 332° Northwest 386 444 20,600 -2,100 Descending Cleveland Center
04:32PM 41.3781 -82.6725 319° Northwest 394 453 18,900 -1,800 Descending Cleveland Center
04:32PM 41.4269 -82.7294 319° Northwest 398 458 17,900 -1,740 Descending Cleveland Center
04:33PM 41.4597 -82.7664 320° Northwest 402 463 17,200 -1,800 Descending Cleveland Center
04:33PM 41.5106 -82.8264 319° Northwest 371 427 16,100 -1,860 Descending Cleveland Center
04:34PM 41.5861 -82.9125 320° Northwest 357 411 14,400 -1,740 Descending Cleveland Center
04:35PM 41.6656 -82.9986 321° Northwest 363 418 12,600 -1,200 Descending Cleveland Center
04:36PM 41.7475 -83.0686 327° Northwest 339 390 12,000 -300 Descending Cleveland Center
04:37PM 41.8358 -83.1306 332° Northwest 342 394 12,000  Level Cleveland Center
04:38PM 41.9225 -83.1731 340° North 340 391 12,000  Level Cleveland Center
04:39PM 42.0172 -83.2217 339° North 344 396 12,000  Level Cleveland Center
04:40PM 42.0894 -83.2525 342° North 261 300 12,000  Level Cleveland Center
04:41PM 42.1606 -83.2444 North 257 296 12,000 -840 Level Cleveland Center
04:42PM 42.2342 -83.2081 20° North 289 333 10,300 -1,200 Descending Cleveland Center
04:43PM 42.3000 -83.1575 30° Northeast 251 289 9,700 -660 Descending Cleveland Center
04:44PM 42.3594 -83.1094 31° Northeast 247 284 9,000 -600 Descending Cleveland Center
04:45PM 42.4208 -83.0697 26° Northeast 240 276 8,600 -960 Descending Cleveland Center
04:46PM 42.4678 -83.1108 327° Northwest 213 245 7,100 -1,620 Descending Cleveland Center
04:47PM 42.4394 -83.1717 238° Southwest 201 231 5,400 -1,380 Descending Cleveland Center
04:48PM 42.3906 -83.2119 211° Southwest 194 223 4,400 -1,020 Descending Cleveland Center